Time;durP1;ratioP1;P1;durP2;ratioP2;P2;SDS_P1;SDS_P2;PMS_P1;PMS_P2;Temp;Humidity;BMP_temperature;BMP_pressure;BME280_temperature;BME280_humidity;BME280_pressure;Samples;Min_cycle;Max_cycle;Signal;HPM_P1;HPM_P2
2024/02/29 00:00:09;;;;;;;;;;;;;;;8.26;100.00;101746.69;5085607;28;867;-85
2024/02/29 00:02:35;;;;;;;;;;;;;;;8.21;100.00;101738.06;5086074;28;624;-85
2024/02/29 00:05:01;;;;;;;;;;;;;;;8.26;100.00;101727.97;5085109;28;752;-85
2024/02/29 00:07:27;;;;;;;;;;;;;;;8.26;100.00;101733.34;5084737;28;1201;-85
2024/02/29 00:09:53;;;;;;;;;;;;;;;8.25;100.00;101730.72;5083242;28;1941;-85
2024/02/29 00:12:19;;;;;;;;;;;;;;;8.21;100.00;101719.34;5083342;28;835;-85
2024/02/29 00:14:45;;;;;;;;;;;;;;;8.27;100.00;101721.69;5083104;28;893;-85
2024/02/29 00:17:11;;;;;;;;;;;;;;;8.26;100.00;101714.63;5082519;28;1220;-85
2024/02/29 00:19:37;;;;;;;;;;;;;;;8.30;100.00;101710.81;5081285;28;831;-85
2024/02/29 00:22:04;;;;;;;;;;;;;;;8.27;100.00;101712.81;5084573;28;799;-85
2024/02/29 00:24:30;;;;;;;;;;;;;;;8.23;100.00;101711.25;5084384;28;894;-85
2024/02/29 00:26:56;;;;;;;;;;;;;;;8.11;100.00;101712.81;5084573;28;1196;-85
2024/02/29 00:29:27;;;;;;;;;;;;;;;8.09;100.00;101712.03;5066148;28;1886;-85
2024/02/29 00:31:53;;;;;;;;;;;;;;;8.25;100.00;101702.19;5084871;28;636;-85
2024/02/29 00:34:19;;;;;;;;;;;;;;;8.16;100.00;101709.84;5083090;28;863;-85
2024/02/29 00:36:45;;;;;;;;;;;;;;;8.21;100.00;101705.13;5084022;28;1181;-85
2024/02/29 00:39:12;;;;;;;;;;;;;;;8.17;100.00;101701.78;5084734;28;931;-85
2024/02/29 00:41:38;;;;;;;;;;;;;;;8.18;100.00;101700.81;5085207;28;787;-85
2024/02/29 00:44:04;;;;;;;;;;;;;;;8.12;100.00;101701.16;5066647;28;883;-85
2024/02/29 00:46:30;;;;;;;;;;;;;;;8.15;100.00;101700.13;5078689;28;1310;-84
2024/02/29 00:48:56;;;;;;;;;;;;;;;8.15;100.00;101695.63;5060761;28;1890;-85
2024/02/29 00:51:22;;;;;;;;;;;;;;;8.18;100.00;101692.81;5077890;28;845;-85
2024/02/29 00:53:48;;;;;;;;;;;;;;;8.22;100.00;101682.78;5061590;28;960;-85
2024/02/29 00:56:14;;;;;;;;;;;;;;;8.22;100.00;101688.13;5078727;28;1200;-85
2024/02/29 00:58:40;;;;;;;;;;;;;;;8.25;100.00;101674.59;5079975;28;888;-85
2024/02/29 01:01:06;;;;;;;;;;;;;;;8.22;100.00;101674.78;5076934;28;805;-85
2024/02/29 01:03:32;;;;;;;;;;;;;;;8.18;100.00;101671.44;5077119;28;837;-85
2024/02/29 01:05:58;;;;;;;;;;;;;;;8.12;100.00;101665.56;5060579;28;1177;-85
2024/02/29 01:08:24;;;;;;;;;;;;;;;8.16;100.00;101665.31;5077145;28;1885;-85
2024/02/29 01:10:50;;;;;;;;;;;;;;;8.09;100.00;101660.41;5078038;28;844;-84
2024/02/29 01:13:17;;;;;;;;;;;;;;;8.07;100.00;101656.97;5079178;28;760;-85
2024/02/29 01:15:43;;;;;;;;;;;;;;;8.18;100.00;101650.03;5079211;28;876;-85
2024/02/29 01:18:09;;;;;;;;;;;;;;;8.11;100.00;101647.81;5079692;28;1276;-84
2024/02/29 01:20:35;;;;;;;;;;;;;;;8.18;100.00;101643.84;5078609;28;732;-84
2024/02/29 01:23:01;;;;;;;;;;;;;;;8.15;100.00;101631.50;5077413;28;887;-85
2024/02/29 01:25:27;;;;;;;;;;;;;;;8.02;100.00;101630.50;5059969;28;860;-84
2024/02/29 01:27:54;;;;;;;;;;;;;;;8.14;100.00;101634.25;5079304;28;1220;-85
2024/02/29 01:30:20;;;;;;;;;;;;;;;8.10;100.00;101630.91;5078198;28;1898;-84
2024/02/29 01:32:46;;;;;;;;;;;;;;;8.11;100.00;101618.41;5061438;28;758;-85
2024/02/29 01:35:12;;;;;;;;;;;;;;;8.15;100.00;101620.81;5079612;28;838;-84
2024/02/29 01:37:38;;;;;;;;;;;;;;;8.07;100.00;101617.75;5078012;28;1310;-85
2024/02/29 01:40:05;;;;;;;;;;;;;;;8.02;100.00;101618.00;5080434;28;953;-85
2024/02/29 01:42:31;;;;;;;;;;;;;;;8.17;100.00;101618.06;5080668;28;1041;-85
2024/02/29 01:44:57;;;;;;;;;;;;;;;8.22;100.00;101602.63;5079722;28;839;-85
2024/02/29 01:47:25;;;;;;;;;;;;;;;8.21;100.00;101607.09;5078183;28;1248;-85
2024/02/29 01:49:54;;;;;;;;;;;;;;;8.20;100.00;101596.50;5080044;28;1866;-85
2024/02/29 01:52:22;;;;;;;;;;;;;;;8.22;100.00;101590.09;5080980;28;815;-85
2024/02/29 01:54:48;;;;;;;;;;;;;;;8.21;100.00;101591.06;5080378;28;800;-85
2024/02/29 01:57:15;;;;;;;;;;;;;;;8.28;100.00;101584.41;5081672;28;1243;-85
2024/02/29 01:59:42;;;;;;;;;;;;;;;8.26;100.00;101590.81;5081169;28;827;-85
2024/02/29 02:02:08;;;;;;;;;;;;;;;8.14;100.00;101588.84;5081421;28;800;-86
2024/02/29 02:04:34;;;;;;;;;;;;;;;8.13;100.00;101579.09;5081340;28;897;-85
2024/02/29 02:07:03;;;;;;;;;;;;;;;8.04;100.00;101584.03;5081149;28;1219;-85
2024/02/29 02:09:29;;;;;;;;;;;;;;;8.04;100.00;101570.66;5081360;28;1930;-85
2024/02/29 02:11:56;;;;;;;;;;;;;;;8.05;100.00;101569.72;5081933;28;953;-85
2024/02/29 02:14:22;;;;;;;;;;;;;;;8.15;100.00;101569.19;5079949;28;820;-86
2024/02/29 02:16:49;;;;;;;;;;;;;;;8.16;100.00;101563.78;5082364;28;1273;-85
2024/02/29 02:19:16;;;;;;;;;;;;;;;8.17;100.00;101562.81;5067315;28;842;-85
2024/02/29 02:21:45;;;;;;;;;;;;;;;7.98;100.00;101563.03;5084129;28;860;-85
2024/02/29 02:24:11;;;;;;;;;;;;;;;7.97;100.00;101561.31;5086169;28;831;-85
2024/02/29 02:26:37;;;;;;;;;;;;;;;7.95;100.00;101565.00;5085673;28;1196;-85
2024/02/29 02:29:05;;;;;;;;;;;;;;;8.00;100.00;101560.25;5068551;28;1993;-85
2024/02/29 02:31:31;;;;;;;;;;;;;;;8.13;100.00;101555.91;5084379;28;840;-85
2024/02/29 02:33:58;;;;;;;;;;;;;;;8.07;100.00;101548.28;5067720;28;788;-85
2024/02/29 02:36:24;;;;;;;;;;;;;;;8.13;100.00;101541.69;5085835;28;1169;-85
2024/02/29 02:38:51;;;;;;;;;;;;;;;8.12;100.00;101534.63;5086733;28;862;-85
2024/02/29 02:41:17;;;;;;;;;;;;;;;8.03;100.00;101533.34;5068850;28;880;-85
2024/02/29 02:43:48;;;;;;;;;;;;;;;8.10;100.00;101529.38;5087754;28;815;-85
2024/02/29 02:46:14;;;;;;;;;;;;;;;8.02;100.00;101520.94;5068464;28;1413;-85
2024/02/29 02:48:40;;;;;;;;;;;;;;;8.09;100.00;101518.78;5086295;28;1951;-85
2024/02/29 02:51:06;;;;;;;;;;;;;;;7.87;100.00;101512.03;5087383;28;754;-85
2024/02/29 02:53:32;;;;;;;;;;;;;;;7.95;100.00;101504.41;5082396;28;857;-85
2024/02/29 02:55:58;;;;;;;;;;;;;;;8.08;100.00;101507.25;5079219;28;1232;-85
2024/02/29 02:58:24;;;;;;;;;;;;;;;7.99;100.00;101497.94;5061534;28;824;-85
2024/02/29 03:00:50;;;;;;;;;;;;;;;8.03;100.00;101504.81;5079986;28;831;-84
2024/02/29 03:03:16;;;;;;;;;;;;;;;8.00;100.00;101498.81;5079566;28;819;-85
2024/02/29 03:05:42;;;;;;;;;;;;;;;7.95;100.00;101492.88;5077908;28;916;-85
2024/02/29 03:08:08;;;;;;;;;;;;;;;7.96;100.00;101497.25;5079608;28;1248;-84
2024/02/29 03:10:34;;;;;;;;;;;;;;;7.94;100.00;101493.81;5060876;28;1886;-84
2024/02/29 03:13:00;;;;;;;;;;;;;;;7.93;100.00;101497.44;5078735;28;736;-84
2024/02/29 03:15:26;;;;;;;;;;;;;;;7.99;100.00;101486.41;5077299;28;935;-84
2024/02/29 03:17:55;;;;;;;;;;;;;;;7.93;100.00;101484.94;5079108;28;1177;-85
2024/02/29 03:20:22;;;;;;;;;;;;;;;7.87;100.00;101479.13;5078261;28;914;-84
2024/02/29 03:22:48;;;;;;;;;;;;;;;7.91;100.00;101477.97;5079200;28;834;-84
2024/02/29 03:25:14;;;;;;;;;;;;;;;8.00;100.00;101470.28;5078854;28;897;-85
2024/02/29 03:27:40;;;;;;;;;;;;;;;8.05;100.00;101472.66;5078624;28;1197;-84
2024/02/29 03:30:06;;;;;;;;;;;;;;;7.98;100.00;101464.19;5061085;28;1890;-84
2024/02/29 03:32:32;;;;;;;;;;;;;;;7.89;100.00;101462.06;5079371;28;669;-85
2024/02/29 03:34:58;;;;;;;;;;;;;;;7.82;100.00;101465.16;5078303;28;842;-84
2024/02/29 03:37:24;;;;;;;;;;;;;;;7.90;100.00;101449.56;5078506;28;1168;-84
2024/02/29 03:39:50;;;;;;;;;;;;;;;7.96;100.00;101454.50;5078673;28;1017;-85
2024/02/29 03:42:17;;;;;;;;;;;;;;;7.93;100.00;101450.22;5061139;28;837;-85
2024/02/29 03:44:45;;;;;;;;;;;;;;;7.93;100.00;101457.38;5078402;28;878;-84
2024/02/29 03:47:12;;;;;;;;;;;;;;;7.95;100.00;101445.63;5079463;28;1279;-85
2024/02/29 03:49:38;;;;;;;;;;;;;;;7.99;100.00;101446.34;5080056;28;1897;-85
2024/02/29 03:52:04;;;;;;;;;;;;;;;8.01;100.00;101449.78;5080087;28;828;-84
2024/02/29 03:54:30;;;;;;;;;;;;;;;8.00;100.00;101435.56;5081811;28;827;-86
2024/02/29 03:56:56;;;;;;;;;;;;;;;7.90;100.00;101438.88;5064034;28;1220;-85
2024/02/29 03:59:23;;;;;;;;;;;;;;;7.93;100.00;101426.19;5080424;28;843;-85
2024/02/29 04:01:50;;;;;;;;;;;;;;;8.07;100.00;101422.69;5082144;28;815;-85
2024/02/29 04:04:17;;;;;;;;;;;;;;;8.07;100.00;101421.84;5082484;28;866;-85
2024/02/29 04:06:44;;;;;;;;;;;;;;;8.03;100.00;101424.66;5080082;28;1228;-85
2024/02/29 04:09:11;;;;;;;;;;;;;;;7.97;100.00;101413.53;5082128;28;1894;-85
2024/02/29 04:11:37;;;;;;;;;;;;;;;7.93;100.00;101411.97;5083218;28;896;-85
2024/02/29 04:14:03;;;;;;;;;;;;;;;7.99;100.00;101419.63;5083346;28;892;-85
2024/02/29 04:16:34;;;;;;;;;;;;;;;7.94;100.00;101409.19;5063269;28;1169;-85
2024/02/29 04:19:00;;;;;;;;;;;;;;;8.02;100.00;101403.41;5082681;28;601;-85
2024/02/29 04:21:26;;;;;;;;;;;;;;;8.02;100.00;101406.94;5064311;28;777;-85
2024/02/29 04:23:52;;;;;;;;;;;;;;;7.94;100.00;101400.31;5080565;28;836;-85
2024/02/29 04:26:18;;;;;;;;;;;;;;;7.86;100.00;101403.44;5080456;28;1360;-85
2024/02/29 04:28:44;;;;;;;;;;;;;;;7.85;100.00;101396.41;5082703;28;897;-85
2024/02/29 04:31:10;;;;;;;;;;;;;;;7.79;100.00;101394.13;5083705;28;1955;-85
2024/02/29 04:33:35;;;;;;;;;;;;;;;7.85;100.00;101388.38;5083159;28;736;-85
2024/02/29 04:36:02;;;;;;;;;;;;;;;7.95;100.00;101381.53;5065283;28;1260;-85
2024/02/29 04:38:28;;;;;;;;;;;;;;;7.99;100.00;101379.56;5065381;28;912;-85
2024/02/29 04:40:57;;;;;;;;;;;;;;;7.95;100.00;101378.00;5082879;28;624;-85
2024/02/29 04:43:23;;;;;;;;;;;;;;;7.79;100.00;101375.41;5084310;28;890;-85
2024/02/29 04:45:49;;;;;;;;;;;;;;;7.92;100.00;101375.53;5066407;28;1217;-85
2024/02/29 04:48:15;;;;;;;;;;;;;;;7.85;100.00;101374.16;5066146;28;916;-85
2024/02/29 04:50:41;;;;;;;;;;;;;;;7.89;100.00;101368.56;5066020;28;1981;-85
2024/02/29 04:53:07;;;;;;;;;;;;;;;8.02;100.00;101371.34;5066912;28;832;-85
2024/02/29 04:55:34;;;;;;;;;;;;;;;8.03;100.00;101367.72;5083803;28;665;-85
2024/02/29 04:58:00;;;;;;;;;;;;;;;8.05;100.00;101363.13;5084386;28;1257;-85
2024/02/29 05:00:26;;;;;;;;;;;;;;;7.95;100.00;101361.97;5084699;28;792;-85
2024/02/29 05:02:52;;;;;;;;;;;;;;;7.93;100.00;101356.72;5082000;28;929;-85
2024/02/29 05:05:18;;;;;;;;;;;;;;;7.99;100.00;101355.50;5058394;28;876;-84
2024/02/29 05:07:44;;;;;;;;;;;;;;;8.05;100.00;101357.78;5058711;28;1177;-84
2024/02/29 05:10:10;;;;;;;;;;;;;;;7.97;100.00;101355.59;5058813;28;1871;-85
2024/02/29 05:12:36;;;;;;;;;;;;;;;7.92;100.00;101352.34;5076472;28;882;-84
2024/02/29 05:15:02;;;;;;;;;;;;;;;8.07;100.00;101349.69;5077063;28;890;-85
2024/02/29 05:17:28;;;;;;;;;;;;;;;8.13;100.00;101344.81;5075036;28;1323;-85
2024/02/29 05:19:56;;;;;;;;;;;;;;;8.09;100.00;101337.94;5076825;28;910;-84
2024/02/29 05:22:22;;;;;;;;;;;;;;;8.16;100.00;101336.63;5058939;28;868;-85
2024/02/29 05:24:48;;;;;;;;;;;;;;;8.15;100.00;101334.03;5076315;28;819;-85
2024/02/29 05:27:14;;;;;;;;;;;;;;;8.00;100.00;101327.84;5076509;28;1263;-84
2024/02/29 05:29:40;;;;;;;;;;;;;;;8.06;100.00;101324.75;5076546;28;1890;-85
2024/02/29 05:32:07;;;;;;;;;;;;;;;8.20;100.00;101331.94;5076769;28;807;-85
2024/02/29 05:34:33;;;;;;;;;;;;;;;8.14;100.00;101322.47;5075972;28;863;-85
2024/02/29 05:36:59;;;;;;;;;;;;;;;8.10;100.00;101322.78;5058221;28;1240;-84
2024/02/29 05:39:25;;;;;;;;;;;;;;;8.14;100.00;101322.47;5075195;28;900;-85
2024/02/29 05:41:51;;;;;;;;;;;;;;;8.11;100.00;101328.03;5058261;28;852;-85
2024/02/29 05:44:18;;;;;;;;;;;;;;;8.21;100.00;101326.50;5062505;28;2971;-84
2024/02/29 05:46:44;;;;;;;;;;;;;;;8.15;100.00;101316.16;5074824;28;1314;-84
2024/02/29 05:49:11;;;;;;;;;;;;;;;8.32;100.00;101315.97;5074474;28;859;-85
2024/02/29 05:51:37;;;;;;;;;;;;;;;8.21;100.00;101312.28;5061120;28;2770;-84
2024/02/29 05:54:03;;;;;;;;;;;;;;;8.29;100.00;101312.66;5080787;28;822;-84
2024/02/29 05:56:29;;;;;;;;;;;;;;;8.09;100.00;101308.56;5080439;28;1267;-84
2024/02/29 05:58:55;;;;;;;;;;;;;;;8.21;100.00;101315.81;5062556;28;850;-84
2024/02/29 06:01:21;;;;;;;;;;;;;;;8.23;100.00;101308.53;5080274;28;905;-85
2024/02/29 06:03:47;;;;;;;;;;;;;;;8.29;100.00;101307.31;5080226;28;823;-84
2024/02/29 06:06:16;;;;;;;;;;;;;;;8.16;100.00;101301.88;5062196;28;1186;-84
2024/02/29 06:08:42;;;;;;;;;;;;;;;8.32;100.00;101301.75;5080377;28;877;-85
2024/02/29 06:11:16;;;;;;;;;;;;;;;8.31;100.00;101298.22;5061862;28;1949;-84
2024/02/29 06:13:43;;;;;;;;;;;;;;;8.27;100.00;101303.88;5080032;28;827;-85
2024/02/29 06:16:13;;;;;;;;;;;;;;;8.29;100.00;101301.97;5081467;28;1220;-84
2024/02/29 06:18:39;;;;;;;;;;;;;;;8.33;100.00;101304.31;5081626;28;894;-84
2024/02/29 06:21:05;;;;;;;;;;;;;;;8.44;100.00;101302.81;5081323;28;815;-84
2024/02/29 06:23:31;;;;;;;;;;;;;;;8.32;100.00;101305.28;5062903;28;910;-83
2024/02/29 06:25:57;;;;;;;;;;;;;;;8.38;100.00;101305.91;5082206;28;1279;-83
2024/02/29 06:28:23;;;;;;;;;;;;;;;8.44;100.00;101303.66;5082474;28;748;-83
2024/02/29 06:30:49;;;;;;;;;;;;;;;8.42;100.00;101302.06;5082772;28;1968;-83
2024/02/29 06:33:15;;;;;;;;;;;;;;;8.43;100.00;101307.31;5083296;28;843;-82
2024/02/29 06:35:41;;;;;;;;;;;;;;;8.48;100.00;101301.69;5081786;28;964;-83
2024/02/29 06:38:07;;;;;;;;;;;;;;;8.55;100.00;101297.63;5066268;28;1193;-83
2024/02/29 06:40:33;;;;;;;;;;;;;;;8.41;100.00;101308.38;5087047;28;942;-83
2024/02/29 06:42:59;;;;;;;;;;;;;;;8.66;100.00;101299.63;5086134;28;843;-83
2024/02/29 06:45:25;;;;;;;;;;;;;;;8.51;100.00;101298.78;5085503;28;800;-83
2024/02/29 06:47:51;;;;;;;;;;;;;;;8.45;100.00;101291.16;5086099;28;1260;-83
2024/02/29 06:50:17;;;;;;;;;;;;;;;8.63;100.00;101303.34;5085518;28;1886;-83
2024/02/29 06:52:43;;;;;;;;;;;;;;;8.70;100.00;101293.09;5085903;28;728;-83
2024/02/29 06:55:09;;;;;;;;;;;;;;;8.65;100.00;101288.03;5085906;28;792;-83
2024/02/29 06:57:36;;;;;;;;;;;;;;;8.67;100.00;101288.81;5085625;28;1173;-83
2024/02/29 07:00:05;;;;;;;;;;;;;;;8.70;100.00;101283.28;5068856;28;864;-83
2024/02/29 07:02:32;;;;;;;;;;;;;;;8.71;100.00;101286.81;5085590;28;883;-83
2024/02/29 07:04:58;;;;;;;;;;;;;;;8.69;100.00;101273.53;5086260;28;862;-83
2024/02/29 07:07:25;;;;;;;;;;;;;;;8.59;100.00;101280.44;5087621;28;1264;-83
2024/02/29 07:09:54;;;;;;;;;;;;;;;8.78;100.00;101285.44;5085433;28;1920;-83
2024/02/29 07:12:20;;;;;;;;;;;;;;;8.81;100.00;101271.84;5087864;28;807;-83
2024/02/29 07:14:46;;;;;;;;;;;;;;;8.68;100.00;101274.50;5081927;28;937;-83
2024/02/29 07:17:12;;;;;;;;;;;;;;;8.56;100.00;101280.66;5082846;28;1244;-83
2024/02/29 07:19:39;;;;;;;;;;;;;;;8.83;99.33;101277.97;5063872;28;788;-83
2024/02/29 07:22:05;;;;;;;;;;;;;;;8.81;98.53;101275.38;5083148;28;803;-83
2024/02/29 07:24:31;;;;;;;;;;;;;;;8.83;99.04;101283.31;5063870;28;833;-83
2024/02/29 07:26:57;;;;;;;;;;;;;;;8.85;98.46;101270.72;5064018;28;1205;-83
2024/02/29 07:29:23;;;;;;;;;;;;;;;8.83;98.14;101262.75;5082392;28;913;-83
2024/02/29 07:31:50;;;;;;;;;;;;;;;8.81;98.10;101275.38;5082600;28;1893;-83
2024/02/29 07:34:17;;;;;;;;;;;;;;;8.87;97.23;101276.81;5064276;28;889;-83
2024/02/29 07:36:43;;;;;;;;;;;;;;;8.80;98.24;101273.69;5081544;28;1216;-83
2024/02/29 07:39:11;;;;;;;;;;;;;;;8.88;97.09;101276.72;5082798;28;918;-83
2024/02/29 07:41:38;;;;;;;;;;;;;;;9.03;95.09;101269.47;5082063;28;803;-83
2024/02/29 07:44:04;;;;;;;;;;;;;;;8.89;96.34;101269.53;5082541;28;886;-83
2024/02/29 07:46:32;;;;;;;;;;;;;;;9.03;94.92;101265.94;5081633;28;1275;-83
2024/02/29 07:48:58;;;;;;;;;;;;;;;8.84;95.60;101264.47;5082612;28;667;-83
2024/02/29 07:51:24;;;;;;;;;;;;;;;9.06;94.25;101255.91;5082739;28;1959;-83
2024/02/29 07:53:51;;;;;;;;;;;;;;;9.00;93.30;101256.28;5082491;28;827;-83
2024/02/29 07:56:18;;;;;;;;;;;;;;;9.06;93.60;101257.72;5063315;28;1236;-83
2024/02/29 07:58:44;;;;;;;;;;;;;;;9.11;93.02;101252.88;5082309;28;815;-83
2024/02/29 08:01:09;;;;;;;;;;;;;;;9.25;91.97;101247.47;5083106;28;870;-83
2024/02/29 08:03:36;;;;;;;;;;;;;;;9.25;91.57;101239.44;5083044;28;905;-83
2024/02/29 08:06:03;;;;;;;;;;;;;;;9.27;91.22;101247.38;5082399;28;1275;-83
2024/02/29 08:08:29;;;;;;;;;;;;;;;9.25;91.17;101249.28;5083274;28;933;-83
2024/02/29 08:10:55;;;;;;;;;;;;;;;9.12;91.69;101246.56;5082070;28;1902;-83
2024/02/29 08:13:21;;;;;;;;;;;;;;;9.20;92.76;101246.91;5082307;28;893;-83
2024/02/29 08:15:47;;;;;;;;;;;;;;;9.11;92.92;101242.19;5081401;28;803;-83
2024/02/29 08:18:13;;;;;;;;;;;;;;;9.35;91.65;101235.16;5082457;28;768;-83
2024/02/29 08:20:40;;;;;;;;;;;;;;;9.45;90.47;101238.91;5083049;28;886;-83
2024/02/29 08:23:06;;;;;;;;;;;;;;;9.53;89.35;101232.16;5082579;28;861;-83
2024/02/29 08:25:32;;;;;;;;;;;;;;;9.53;87.81;101241.03;5082525;28;713;-84
2024/02/29 08:27:58;;;;;;;;;;;;;;;9.45;90.15;101244.28;5084040;28;1271;-83
2024/02/29 08:30:25;;;;;;;;;;;;;;;9.68;87.56;101236.44;5083132;28;1956;-83
2024/02/29 08:32:51;;;;;;;;;;;;;;;9.65;87.31;101242.88;5083450;28;870;-83
2024/02/29 08:35:18;;;;;;;;;;;;;;;9.72;87.40;101241.47;5082165;28;894;-83
2024/02/29 08:37:44;;;;;;;;;;;;;;;9.87;86.64;101236.00;5083709;28;1216;-83
2024/02/29 08:40:11;;;;;;;;;;;;;;;9.84;87.02;101222.84;5082887;28;863;-83
2024/02/29 08:42:37;;;;;;;;;;;;;;;9.96;87.18;101227.31;5083545;28;804;-84
2024/02/29 08:45:04;;;;;;;;;;;;;;;10.01;85.98;101217.94;5081915;28;819;-83
2024/02/29 08:47:30;;;;;;;;;;;;;;;10.07;86.50;101228.25;5082545;28;1303;-83
2024/02/29 08:49:56;;;;;;;;;;;;;;;10.19;85.41;101217.59;5083537;28;894;-83
2024/02/29 08:52:22;;;;;;;;;;;;;;;10.16;86.46;101213.31;5082677;28;1878;-83
2024/02/29 08:54:48;;;;;;;;;;;;;;;10.02;87.61;101219.66;5081530;28;913;-83
2024/02/29 08:57:14;;;;;;;;;;;;;;;10.01;87.73;101209.06;5064183;28;1283;-83
2024/02/29 08:59:41;;;;;;;;;;;;;;;10.20;87.39;101209.44;5064380;28;833;-83
2024/02/29 09:02:07;;;;;;;;;;;;;;;10.25;86.07;101210.00;5084368;28;854;-83
2024/02/29 09:04:33;;;;;;;;;;;;;;;10.39;85.66;101205.44;5083092;28;910;-84
2024/02/29 09:07:00;;;;;;;;;;;;;;;10.25;85.87;101211.84;5083726;28;1201;-83
2024/02/29 09:09:28;;;;;;;;;;;;;;;10.23;86.40;101203.91;5083087;28;815;-83
2024/02/29 09:11:54;;;;;;;;;;;;;;;10.32;86.62;101194.28;5083848;28;1917;-83
2024/02/29 09:14:20;;;;;;;;;;;;;;;10.28;85.73;101203.56;5083950;28;795;-84
2024/02/29 09:16:46;;;;;;;;;;;;;;;10.18;88.20;101194.44;5083677;28;1232;-83
2024/02/29 09:19:12;;;;;;;;;;;;;;;10.17;87.89;101190.03;5066656;28;950;-83
2024/02/29 09:21:39;;;;;;;;;;;;;;;10.49;86.36;101185.88;5084740;28;798;-84
2024/02/29 09:24:06;;;;;;;;;;;;;;;10.52;86.61;101184.78;5082585;28;827;-83
2024/02/29 09:26:35;;;;;;;;;;;;;;;10.70;85.73;101186.06;5080186;28;1189;-83
2024/02/29 09:29:01;;;;;;;;;;;;;;;10.79;85.57;101185.38;5080239;28;829;-83
2024/02/29 09:31:28;;;;;;;;;;;;;;;10.84;83.56;101185.03;5080852;28;1878;-83
2024/02/29 09:33:54;;;;;;;;;;;;;;;11.00;83.34;101180.19;5079729;28;731;-83
2024/02/29 09:36:21;;;;;;;;;;;;;;;11.04;82.29;101179.00;5079456;28;1228;-83
2024/02/29 09:38:47;;;;;;;;;;;;;;;11.08;82.06;101176.94;5080400;28;942;-83
2024/02/29 09:41:13;;;;;;;;;;;;;;;11.12;82.35;101176.59;5086338;28;536;-82
2024/02/29 09:43:44;;;;;;;;;;;;;;;10.97;81.72;101172.38;5088120;28;988;-83
2024/02/29 09:46:10;;;;;;;;;;;;;;;11.15;81.44;101164.75;5079665;28;1220;-83
2024/02/29 09:48:38;;;;;;;;;;;;;;;11.29;81.13;101171.72;5080565;28;799;-83
2024/02/29 09:51:05;;;;;;;;;;;;;;;11.41;81.10;101168.09;5079900;28;1890;-83
2024/02/29 09:53:36;;;;;;;;;;;;;;;11.43;79.66;101167.00;5081077;28;870;-83
2024/02/29 09:56:03;;;;;;;;;;;;;;;11.48;78.46;101159.41;5080716;28;1189;-83
2024/02/29 09:58:31;;;;;;;;;;;;;;;11.71;77.43;101164.78;5082449;28;994;-83
2024/02/29 10:00:57;;;;;;;;;;;;;;;11.69;76.56;101175.66;5081824;28;803;-83
2024/02/29 10:03:24;;;;;;;;;;;;;;;11.86;74.55;101170.78;5081591;28;815;-83
2024/02/29 10:05:52;;;;;;;;;;;;;;;12.10;74.82;101151.81;5077630;28;1216;-83
2024/02/29 10:08:18;;;;;;;;;;;;;;;12.31;73.26;101163.50;5078944;28;823;-83
2024/02/29 10:10:45;;;;;;;;;;;;;;;12.25;72.12;101167.53;5078532;28;1951;-83
2024/02/29 10:13:11;;;;;;;;;;;;;;;12.46;71.97;101166.75;5078319;28;775;-83
2024/02/29 10:15:37;;;;;;;;;;;;;;;12.39;71.10;101157.47;5077769;28;811;-83
2024/02/29 10:18:03;;;;;;;;;;;;;;;12.31;70.78;101153.59;5078318;28;1272;-83
2024/02/29 10:20:32;;;;;;;;;;;;;;;12.52;70.98;101150.09;5079101;28;779;-83
2024/02/29 10:22:58;;;;;;;;;;;;;;;12.41;69.60;101152.84;5077931;28;839;-83
2024/02/29 10:25:26;;;;;;;;;;;;;;;12.46;70.18;101153.28;5077894;28;819;-83
2024/02/29 10:28:00;;;;;;;;;;;;;;;12.33;69.53;101153.47;5078052;28;1216;-82
2024/02/29 10:30:27;;;;;;;;;;;;;;;12.47;69.80;101139.69;5083327;28;526;-83
2024/02/29 10:32:53;;;;;;;;;;;;;;;12.49;70.11;101139.59;5084948;28;1961;-83
2024/02/29 10:35:24;;;;;;;;;;;;;;;12.44;70.50;101145.34;5084690;28;779;-83
2024/02/29 10:37:55;;;;;;;;;;;;;;;12.25;71.87;101145.16;5085684;28;1157;-83
2024/02/29 10:40:23;;;;;;;;;;;;;;;12.32;72.38;101131.09;5088542;28;962;-83
2024/02/29 10:42:50;;;;;;;;;;;;;;;12.47;73.60;101145.09;5091124;28;824;-83
2024/02/29 10:45:17;;;;;;;;;;;;;;;12.27;71.86;101140.50;5083621;28;881;-83
2024/02/29 10:48:02;;;;;;;;;;;;;;;12.37;71.35;101132.53;5083827;28;1177;-83
2024/02/29 10:50:35;;;;;;;;;;;;;;;12.56;70.86;101128.16;5083524;28;533;-83
2024/02/29 10:53:18;;;;;;;;;;;;;;;12.52;71.32;101129.44;5082512;28;1897;-83
2024/02/29 10:55:53;;;;;;;;;;;;;;;12.45;71.50;101116.59;5064370;28;962;-83
2024/02/29 10:58:24;;;;;;;;;;;;;;;12.65;71.22;101123.84;5082771;28;693;-83
2024/02/29 11:00:50;;;;;;;;;;;;;;;12.86;71.02;101123.84;5082516;28;924;-83
2024/02/29 11:03:17;;;;;;;;;;;;;;;12.68;70.49;101118.19;5065065;28;816;-83
2024/02/29 11:05:45;;;;;;;;;;;;;;;12.75;71.28;101127.47;5081990;28;854;-83
2024/02/29 11:08:12;;;;;;;;;;;;;;;12.80;71.49;101125.25;5082526;28;1355;-83
2024/02/29 11:10:38;;;;;;;;;;;;;;;12.66;71.64;101122.88;5084049;28;811;-84
2024/02/29 11:13:04;;;;;;;;;;;;;;;12.71;71.21;101125.19;5085515;28;1947;-83
2024/02/29 11:15:30;;;;;;;;;;;;;;;12.76;70.69;101117.56;5082335;28;839;-83
2024/02/29 11:18:00;;;;;;;;;;;;;;;12.71;70.61;101119.78;5083100;28;1252;-83
2024/02/29 11:20:27;;;;;;;;;;;;;;;12.56;71.30;101117.41;5082564;28;804;-83
2024/02/29 11:23:05;;;;;;;;;;;;;;;12.58;71.88;101106.50;5083295;28;811;-83
2024/02/29 11:25:31;;;;;;;;;;;;;;;12.67;72.95;101107.56;5082588;28;799;-83
2024/02/29 11:28:03;;;;;;;;;;;;;;;12.70;72.58;101094.72;5082683;28;1212;-83
2024/02/29 11:30:30;;;;;;;;;;;;;;;12.79;72.78;101091.25;5083049;28;548;-83
2024/02/29 11:33:07;;;;;;;;;;;;;;;12.76;73.09;101102.25;5082797;28;1889;-83
2024/02/29 11:35:33;;;;;;;;;;;;;;;12.68;74.31;101098.50;5083441;28;534;-83
2024/02/29 11:38:01;;;;;;;;;;;;;;;12.86;74.20;101087.03;5083077;28;1248;-83
2024/02/29 11:40:31;;;;;;;;;;;;;;;12.86;74.42;101081.63;5082335;28;962;-83
2024/02/29 11:43:01;;;;;;;;;;;;;;;12.89;74.41;101086.78;5083438;28;831;-83
2024/02/29 11:45:27;;;;;;;;;;;;;;;12.97;74.27;101083.41;5082821;28;787;-83
2024/02/29 11:47:53;;;;;;;;;;;;;;;12.82;74.83;101080.22;5083327;28;1169;-83
2024/02/29 11:50:19;;;;;;;;;;;;;;;12.85;74.83;101079.94;5064131;28;813;-83
2024/02/29 11:52:45;;;;;;;;;;;;;;;12.86;75.30;101073.56;5083116;28;1862;-83
2024/02/29 11:55:12;;;;;;;;;;;;;;;12.90;75.47;101069.63;5083924;28;822;-83
2024/02/29 11:57:37;;;;;;;;;;;;;;;12.91;76.51;101068.66;5083709;28;1275;-83
2024/02/29 12:00:07;;;;;;;;;;;;;;;12.93;76.87;101074.75;5064659;28;861;-83
2024/02/29 12:02:34;;;;;;;;;;;;;;;12.93;77.92;101063.13;5065025;28;832;-83
2024/02/29 12:05:00;;;;;;;;;;;;;;;13.00;78.48;101063.44;5065178;28;863;-83
2024/02/29 12:07:27;;;;;;;;;;;;;;;13.03;79.45;101049.72;5083270;28;1185;-83
2024/02/29 12:09:53;;;;;;;;;;;;;;;13.02;78.75;101058.78;5065367;28;873;-83
2024/02/29 12:12:20;;;;;;;;;;;;;;;13.02;80.62;101054.25;5065055;28;1939;-83
2024/02/29 12:14:47;;;;;;;;;;;;;;;13.06;79.44;101049.44;5082885;28;807;-83
2024/02/29 12:17:13;;;;;;;;;;;;;;;13.12;79.51;101046.22;5083698;28;1209;-83
2024/02/29 12:19:40;;;;;;;;;;;;;;;13.21;78.71;101050.81;5065460;28;947;-82
2024/02/29 12:22:11;;;;;;;;;;;;;;;13.23;78.32;101043.44;5082870;28;803;-83
2024/02/29 12:24:38;;;;;;;;;;;;;;;13.13;81.01;101045.22;5065134;28;865;-83
2024/02/29 12:27:05;;;;;;;;;;;;;;;13.17;83.06;101038.56;5083764;28;1291;-83
2024/02/29 12:29:31;;;;;;;;;;;;;;;13.25;83.44;101038.78;5083487;28;752;-83
2024/02/29 12:31:59;;;;;;;;;;;;;;;13.13;86.30;101043.38;5065429;28;1936;-83
2024/02/29 12:34:27;;;;;;;;;;;;;;;13.35;84.46;101031.56;5083635;28;893;-84
2024/02/29 12:36:56;;;;;;;;;;;;;;;13.39;86.13;101035.72;5065499;28;1228;-83
2024/02/29 12:39:22;;;;;;;;;;;;;;;13.47;86.71;101032.34;5083674;28;926;-83
2024/02/29 12:41:48;;;;;;;;;;;;;;;13.46;86.92;101026.06;5084202;28;744;-83
2024/02/29 12:44:14;;;;;;;;;;;;;;;13.49;87.43;101025.81;5084381;28;882;-83
2024/02/29 12:46:40;;;;;;;;;;;;;;;13.39;83.52;101021.41;5083629;28;1283;-83
2024/02/29 12:49:07;;;;;;;;;;;;;;;13.26;78.66;101020.75;5085094;28;831;-83
2024/02/29 12:51:33;;;;;;;;;;;;;;;13.36;76.60;101010.88;5085886;28;1889;-83